Time;durP1;ratioP1;P1;durP2;ratioP2;P2;SDS_P1;SDS_P2;PMS_P1;PMS_P2;Temp;Humidity;BMP_temperature;BMP_pressure;BME280_temperature;BME280_humidity;BME280_pressure;Samples;Min_cycle;Max_cycle;Signal;HPM_P1;HPM_P2
2022/11/03 00:02:06;;;;;;;9.98;1.30;;;8.90;99.90;;;;;;5060367;28;20024;-70
2022/11/03 00:04:33;;;;;;;5.82;1.50;;;8.90;99.90;;;;;;5078115;28;20017;-70
2022/11/03 00:07:00;;;;;;;7.88;1.67;;;8.90;99.90;;;;;;5078034;28;20027;-70
2022/11/03 00:09:31;;;;;;;8.65;1.40;;;8.90;99.90;;;;;;5077999;28;20024;-70
2022/11/03 00:11:58;;;;;;;9.13;1.45;;;8.90;99.90;;;;;;5077948;28;20028;-70
2022/11/03 00:14:25;;;;;;;6.30;1.17;;;8.80;99.90;;;;;;5060493;28;20413;-70
2022/11/03 00:16:52;;;;;;;7.43;1.10;;;8.80;99.90;;;;;;5077667;28;20135;-70
2022/11/03 00:19:20;;;;;;;6.18;1.10;;;8.80;99.90;;;;;;5077738;28;20455;-70
2022/11/03 00:21:47;;;;;;;3.60;0.93;;;8.90;99.90;;;;;;5077728;28;20428;-70
2022/11/03 00:24:14;;;;;;;7.05;1.10;;;8.90;99.90;;;;;;5078467;28;20024;-70
2022/11/03 00:26:41;;;;;;;11.05;1.58;;;9.00;99.90;;;;;;5078213;28;20029;-70
2022/11/03 00:29:11;;;;;;;6.55;1.33;;;9.00;99.90;;;;;;5077592;28;20102;-70
2022/11/03 00:31:40;;;;;;;6.20;1.58;;;9.00;99.90;;;;;;5077466;28;20029;-70
2022/11/03 00:34:07;;;;;;;12.55;1.30;;;9.00;99.90;;;;;;5076981;28;20408;-70
2022/11/03 00:36:38;;;;;;;10.82;1.38;;;9.00;99.90;;;;;;5077394;28;20025;-70
2022/11/03 00:39:06;;;;;;;8.55;1.38;;;9.00;99.90;;;;;;5077986;28;20016;-70
2022/11/03 00:41:34;;;;;;;14.70;1.60;;;9.00;99.90;;;;;;5059572;28;20063;-70
2022/11/03 00:44:01;;;;;;;4.88;1.58;;;9.00;99.90;;;;;;5077248;28;20029;-70
2022/11/03 00:46:35;;;;;;;9.95;1.90;;;9.00;99.90;;;;;;5077215;28;20107;-70
2022/11/03 00:49:03;;;;;;;6.88;1.10;;;9.00;99.90;;;;;;5077246;28;20024;-70
2022/11/03 00:51:32;;;;;;;7.85;1.05;;;9.10;99.90;;;;;;5077172;28;20379;-70
2022/11/03 00:54:01;;;;;;;6.43;1.30;;;9.10;99.90;;;;;;5077078;28;20035;-70
2022/11/03 00:56:34;;;;;;;9.18;0.88;;;9.20;99.90;;;;;;5077062;28;20025;-70
2022/11/03 00:59:02;;;;;;;10.85;2.28;;;9.30;99.90;;;;;;5076857;28;20049;-70
2022/11/03 01:01:41;;;;;;;5.25;1.02;;;9.30;99.90;;;;;;5059233;28;20021;-70
2022/11/03 01:06:57;;;;;;;10.05;1.42;;;9.30;99.90;;;;;;5077515;28;20091;-70
2022/11/03 01:09:38;;;;;;;4.32;1.17;;;9.40;99.90;;;;;;5077071;28;20031;-70
2022/11/03 01:12:13;;;;;;;5.47;1.00;;;9.40;99.90;;;;;;5076830;28;20028;-70
2022/11/03 01:14:53;;;;;;;10.02;2.00;;;9.40;99.90;;;;;;5076797;28;20031;-70
2022/11/03 01:17:24;;;;;;;10.23;2.17;;;9.40;99.90;;;;;;5076876;28;20020;-70
2022/11/03 01:19:52;;;;;;;5.72;0.88;;;9.40;99.90;;;;;;5076746;28;20012;-70
2022/11/03 01:22:20;;;;;;;6.97;1.90;;;9.40;99.90;;;;;;5076758;28;20078;-70
2022/11/03 01:24:47;;;;;;;7.15;1.10;;;9.50;99.90;;;;;;5076711;28;20024;-70
2022/11/03 01:27:21;;;;;;;7.22;1.30;;;9.50;99.90;;;;;;5076455;28;20024;-70
2022/11/03 01:29:48;;;;;;;12.77;2.05;;;9.50;99.90;;;;;;5077119;28;20314;-70
2022/11/03 01:32:15;;;;;;;9.43;1.30;;;9.40;99.90;;;;;;5058889;28;20043;-70
2022/11/03 01:34:43;;;;;;;6.60;1.33;;;9.50;99.90;;;;;;5077157;28;20060;-70
2022/11/03 01:37:10;;;;;;;12.45;1.23;;;9.40;99.90;;;;;;5059032;28;20028;-70
2022/11/03 01:39:37;;;;;;;6.65;1.05;;;9.40;99.90;;;;;;5058742;28;20020;-70
2022/11/03 01:42:04;;;;;;;12.82;1.40;;;9.40;99.90;;;;;;5076565;28;20021;-70
2022/11/03 01:44:49;;;;;;;9.30;1.05;;;9.40;99.90;;;;;;5058591;28;20027;-70
2022/11/03 01:47:34;;;;;;;10.70;1.35;;;9.40;99.90;;;;;;5076667;28;20417;-70
2022/11/03 01:50:08;;;;;;;10.33;1.20;;;9.30;99.90;;;;;;5077047;28;20029;-70
2022/11/03 01:52:52;;;;;;;7.90;1.60;;;9.30;99.90;;;;;;5076470;28;20429;-70
2022/11/03 01:55:24;;;;;;;15.38;1.50;;;9.30;99.90;;;;;;5076595;28;20017;-70
2022/11/03 01:58:07;;;;;;;10.45;1.67;;;9.20;99.90;;;;;;5076047;28;20048;-70
2022/11/03 02:00:36;;;;;;;11.68;1.33;;;9.20;99.90;;;;;;5075175;28;20108;-70
2022/11/03 02:03:05;;;;;;;8.02;1.33;;;9.20;99.90;;;;;;5076338;28;20082;-70
2022/11/03 02:05:32;;;;;;;7.43;1.73;;;9.20;99.90;;;;;;5076303;28;20024;-70
2022/11/03 02:08:10;;;;;;;6.88;1.48;;;9.20;99.90;;;;;;5058459;28;20036;-70
2022/11/03 02:10:37;;;;;;;6.53;1.35;;;9.20;99.90;;;;;;5076259;28;20060;-70
2022/11/03 02:13:16;;;;;;;6.53;0.95;;;9.30;99.90;;;;;;5076585;28;20324;-70
2022/11/03 02:15:44;;;;;;;9.48;1.45;;;9.30;99.90;;;;;;5076043;28;20103;-70
2022/11/03 02:18:12;;;;;;;5.78;1.60;;;9.20;99.90;;;;;;5076220;28;20016;-70
2022/11/03 02:20:41;;;;;;;7.97;1.20;;;9.20;99.90;;;;;;5076119;28;20025;-70
2022/11/03 02:23:47;;;;;;;7.38;1.27;;;9.20;99.90;;;;;;5076284;28;20024;-70
2022/11/03 02:26:16;;;;;;;8.45;1.55;;;9.20;99.90;;;;;;5075362;28;20107;-70
2022/11/03 02:28:43;;;;;;;8.38;2.20;;;9.30;99.90;;;;;;5075010;28;20081;-69
2022/11/03 02:31:47;;;;;;;11.40;1.48;;;9.20;99.90;;;;;;5076503;28;20021;-70
2022/11/03 02:34:22;;;;;;;9.95;2.45;;;9.20;99.90;;;;;;5076178;28;20028;-70
2022/11/03 02:37:07;;;;;;;8.20;1.73;;;9.20;99.90;;;;;;5075914;28;20021;-70
2022/11/03 02:39:44;;;;;;;10.23;2.15;;;9.20;99.90;;;;;;5075958;28;20028;-70
2022/11/03 02:42:13;;;;;;;7.53;1.92;;;9.10;99.90;;;;;;5076002;28;20055;-70
2022/11/03 02:44:42;;;;;;;8.30;1.08;;;9.20;99.90;;;;;;5075866;28;20420;-70
2022/11/03 02:47:12;;;;;;;6.78;1.50;;;9.20;99.90;;;;;;5058173;28;20037;-70
2022/11/03 02:49:47;;;;;;;10.05;1.80;;;9.20;99.90;;;;;;5075756;28;20028;-70
2022/11/03 02:52:32;;;;;;;10.63;1.95;;;9.10;99.90;;;;;;5076320;28;20025;-70
2022/11/03 02:55:22;;;;;;;7.05;1.45;;;9.10;99.90;;;;;;5075699;28;20033;-70
2022/11/03 02:58:26;;;;;;;11.48;1.50;;;9.20;99.90;;;;;;5077539;28;20106;-69
2022/11/03 03:01:01;;;;;;;9.20;1.27;;;9.20;99.90;;;;;;5079573;28;20023;-69
2022/11/03 03:03:42;;;;;;;8.52;1.98;;;9.20;99.90;;;;;;5079383;28;20059;-70
2022/11/03 03:06:33;;;;;;;11.07;1.75;;;9.20;99.90;;;;;;5079241;28;20048;-70
2022/11/03 03:09:05;;;;;;;4.22;1.10;;;9.20;99.90;;;;;;5079243;28;20025;-70
2022/11/03 03:11:37;;;;;;;6.65;1.63;;;9.20;99.90;;;;;;5079695;28;20020;-70
2022/11/03 03:14:18;;;;;;;6.38;1.80;;;9.20;99.90;;;;;;5079851;28;20027;-70
2022/11/03 03:17:04;;;;;;;8.10;2.20;;;9.20;99.90;;;;;;5079450;28;20063;-70
2022/11/03 03:19:50;;;;;;;5.57;1.05;;;9.20;99.90;;;;;;5079041;28;20502;-70
2022/11/03 03:22:56;;;;;;;9.03;2.13;;;9.20;99.90;;;;;;5061361;28;20035;-70
2022/11/03 03:25:41;;;;;;;7.85;1.85;;;9.20;99.90;;;;;;5079714;28;20294;-70
2022/11/03 03:28:23;;;;;;;7.10;2.25;;;9.20;99.90;;;;;;5078867;28;20032;-70
2022/11/03 03:30:56;;;;;;;11.65;1.92;;;9.20;99.90;;;;;;5079024;28;20029;-70
2022/11/03 03:33:26;;;;;;;10.35;1.45;;;9.10;99.90;;;;;;5078904;28;20032;-70
2022/11/03 03:35:55;;;;;;;17.38;2.97;;;9.10;99.90;;;;;;5078550;28;20063;-70
2022/11/03 03:38:32;;;;;;;9.88;1.85;;;9.10;99.90;;;;;;5078655;28;20331;-70
2022/11/03 03:41:04;;;;;;;5.32;2.15;;;9.00;99.90;;;;;;5079124;28;20074;-70
2022/11/03 03:43:33;;;;;;;7.38;1.55;;;9.00;99.90;;;;;;5078737;28;20020;-69
2022/11/03 03:46:10;;;;;;;11.57;1.95;;;8.90;99.90;;;;;;5078477;28;20016;-70
2022/11/03 03:48:38;;;;;;;8.85;1.52;;;8.90;99.90;;;;;;5078495;28;20031;-70
2022/11/03 03:51:06;;;;;;;10.68;2.75;;;8.90;99.90;;;;;;5078997;28;20043;-70
2022/11/03 03:53:33;;;;;;;7.05;1.50;;;8.80;99.90;;;;;;5079062;28;20040;-70
2022/11/03 03:56:04;;;;;;;11.85;1.85;;;8.80;99.90;;;;;;5078765;28;20025;-70
2022/11/03 03:58:32;;;;;;;7.25;1.02;;;8.90;99.90;;;;;;5077856;28;20098;-70
2022/11/03 04:00:59;;;;;;;6.82;2.38;;;8.90;99.90;;;;;;5078478;28;20097;-70
2022/11/03 04:03:28;;;;;;;5.50;2.13;;;8.80;99.90;;;;;;5077257;28;20020;-70
2022/11/03 04:05:55;;;;;;;5.70;1.73;;;8.90;99.90;;;;;;5078121;28;20032;-70
2022/11/03 04:08:23;;;;;;;12.45;2.60;;;8.90;99.90;;;;;;5076981;28;20107;-70
2022/11/03 04:24:42;;;;;;;5.78;2.28;;;9.10;99.90;;;;;;5078001;28;20059;-69
2022/11/03 04:27:27;;;;;;;9.75;2.17;;;9.20;99.90;;;;;;5059943;28;20115;-70
2022/11/03 04:30:07;;;;;;;10.02;2.70;;;9.30;99.90;;;;;;5077576;28;20453;-70
2022/11/03 04:32:35;;;;;;;10.77;1.83;;;9.30;99.90;;;;;;5078107;28;20086;-70
2022/11/03 04:35:19;;;;;;;11.57;1.88;;;9.40;99.90;;;;;;5077358;28;20024;-72
2022/11/03 04:38:16;;;;;;;14.07;2.05;;;9.40;99.90;;;;;;5078255;28;20021;-70
2022/11/03 04:40:55;;;;;;;16.35;1.65;;;9.40;99.90;;;;;;5074697;28;20033;-70
2022/11/03 04:43:49;;;;;;;5.28;1.55;;;9.50;99.90;;;;;;5077271;28;20049;-70
2022/11/03 04:46:25;;;;;;;9.57;2.42;;;9.50;99.90;;;;;;5057749;28;20309;-70
2022/11/03 04:49:01;;;;;;;5.90;1.17;;;9.40;99.90;;;;;;5078037;28;20028;-70
2022/11/03 04:51:34;;;;;;;9.30;1.90;;;9.40;99.90;;;;;;5077228;28;20111;-70
2022/11/03 04:54:23;;;;;;;9.68;1.65;;;9.40;99.90;;;;;;5077747;28;20037;-70
2022/11/03 04:56:50;;;;;;;6.68;1.40;;;9.40;99.90;;;;;;5059487;28;20024;-70
2022/11/03 04:59:17;;;;;;;8.75;1.42;;;9.40;99.90;;;;;;5055824;28;20048;-70
2022/11/03 05:01:46;;;;;;;6.50;1.90;;;9.40;99.90;;;;;;5056994;28;20028;-69
2022/11/03 05:04:18;;;;;;;6.72;1.30;;;9.40;99.90;;;;;;5056996;28;20017;-70
2022/11/03 05:06:54;;;;;;;8.38;1.42;;;9.40;99.90;;;;;;5057123;28;20059;-70
2022/11/03 05:09:28;;;;;;;7.03;1.33;;;9.40;99.90;;;;;;5055874;28;20028;-70
2022/11/03 05:11:58;;;;;;;9.77;1.58;;;9.40;99.90;;;;;;5057009;28;20032;-70
2022/11/03 05:14:30;;;;;;;13.52;2.42;;;9.40;99.90;;;;;;5056831;28;20027;-70
2022/11/03 05:17:01;;;;;;;5.25;1.38;;;9.50;99.90;;;;;;5057093;28;20024;-70
2022/11/03 05:19:41;;;;;;;8.30;1.10;;;9.50;99.90;;;;;;5057013;28;20025;-70
2022/11/03 05:22:19;;;;;;;9.63;1.50;;;9.50;99.90;;;;;;5056799;28;20092;-70
2022/11/03 05:24:47;;;;;;;10.13;2.30;;;9.50;99.90;;;;;;5056714;28;20320;-70
2022/11/03 05:27:21;;;;;;;5.93;1.48;;;9.60;99.90;;;;;;5056780;28;20029;-70
2022/11/03 05:29:51;;;;;;;12.65;2.33;;;9.60;99.90;;;;;;5056475;28;20108;-70
2022/11/03 05:32:27;;;;;;;5.72;1.75;;;9.60;99.90;;;;;;5055599;28;20032;-70
2022/11/03 05:34:56;;;;;;;7.20;1.80;;;9.60;99.90;;;;;;5057124;28;20397;-70
2022/11/03 05:37:32;;;;;;;5.32;1.55;;;9.60;99.90;;;;;;5056698;28;20364;-69
2022/11/03 05:40:12;;;;;;;5.75;1.70;;;9.60;99.90;;;;;;5056483;28;20381;-70
2022/11/03 05:42:43;;;;;;;8.63;1.55;;;9.60;99.90;;;;;;5056426;28;20036;-70
2022/11/03 05:45:27;;;;;;;5.35;1.38;;;9.60;99.90;;;;;;5056349;28;20036;-70
2022/11/03 05:47:56;;;;;;;9.10;1.10;;;9.50;99.90;;;;;;5056446;28;20444;-70
2022/11/03 05:50:24;;;;;;;6.25;1.80;;;9.50;99.90;;;;;;5057308;28;20029;-70
2022/11/03 05:53:12;;;;;;;9.48;2.55;;;9.60;99.90;;;;;;5056570;28;20067;-70
2022/11/03 05:55:41;;;;;;;7.60;1.67;;;9.60;99.90;;;;;;5056254;28;20021;-70
2022/11/03 05:58:28;;;;;;;8.48;1.85;;;9.60;99.90;;;;;;5063836;28;20045;-70
2022/11/03 06:00:56;;;;;;;7.75;2.00;;;9.60;99.90;;;;;;5076551;28;20096;-70
2022/11/03 06:03:36;;;;;;;6.30;1.70;;;9.60;99.90;;;;;;5076680;28;20025;-69
2022/11/03 06:06:25;;;;;;;9.10;1.90;;;9.60;99.90;;;;;;5077351;28;20016;-70
2022/11/03 06:08:53;;;;;;;8.30;1.35;;;9.60;99.90;;;;;;5076321;28;20099;-70
2022/11/03 06:11:27;;;;;;;10.30;1.60;;;9.50;99.90;;;;;;5076258;28;20027;-70
2022/11/03 06:13:56;;;;;;;10.07;1.25;;;9.60;99.90;;;;;;5076295;28;20456;-70
2022/11/03 06:16:37;;;;;;;5.35;1.05;;;9.60;99.90;;;;;;5058269;28;20035;-70
2022/11/03 06:19:28;;;;;;;11.73;1.90;;;9.60;99.90;;;;;;5077145;28;20025;-70
2022/11/03 06:22:02;;;;;;;9.90;1.60;;;9.60;99.90;;;;;;5076855;28;20086;-70
2022/11/03 06:24:33;;;;;;;7.28;1.10;;;9.60;99.90;;;;;;5076381;28;20024;-70
2022/11/03 06:27:00;;;;;;;8.13;1.60;;;9.60;99.90;;;;;;5076685;28;20021;-70
2022/11/03 06:29:32;;;;;;;7.05;1.60;;;9.60;99.90;;;;;;5076079;28;20078;-70
2022/11/03 06:32:00;;;;;;;7.85;1.40;;;9.60;99.90;;;;;;5078599;28;20047;-70
2022/11/03 06:34:40;;;;;;;6.53;1.80;;;9.60;99.90;;;;;;5080407;28;20044;-71
2022/11/03 06:37:20;;;;;;;5.50;1.35;;;9.60;99.90;;;;;;5079786;28;20017;-71
2022/11/03 06:39:48;;;;;;;6.22;1.50;;;9.60;99.90;;;;;;5079743;28;20020;-71
2022/11/03 06:42:20;;;;;;;6.38;1.55;;;9.60;99.90;;;;;;5079888;28;20024;-70
2022/11/03 06:44:50;;;;;;;12.27;1.88;;;9.70;99.90;;;;;;5079471;28;20047;-71
2022/11/03 06:47:25;;;;;;;4.82;1.40;;;9.70;99.90;;;;;;5079567;28;20436;-71
2022/11/03 06:49:58;;;;;;;13.30;2.00;;;9.70;99.90;;;;;;5079577;28;20109;-71
2022/11/03 06:52:37;;;;;;;5.57;1.50;;;9.70;99.90;;;;;;5079714;28;20044;-71
2022/11/03 06:55:25;;;;;;;5.38;1.33;;;9.80;99.90;;;;;;5079437;28;20024;-71
2022/11/03 06:58:20;;;;;;;4.55;1.00;;;9.80;99.90;;;;;;5079406;28;20044;-71
2022/11/03 07:00:47;;;;;;;7.50;1.58;;;9.90;99.90;;;;;;5061569;28;20032;-71
2022/11/03 07:03:48;;;;;;;12.27;2.22;;;9.90;99.90;;;;;;5061548;28;20065;-71
2022/11/03 07:06:26;;;;;;;8.75;1.73;;;10.00;99.90;;;;;;5047661;28;20056;-71
2022/11/03 07:09:00;;;;;;;7.50;1.50;;;10.00;99.90;;;;;;5079095;28;20036;-70
2022/11/03 07:11:42;;;;;;;6.35;1.48;;;10.10;99.90;;;;;;5079131;28;20052;-71
2022/11/03 07:14:25;;;;;;;9.70;2.20;;;10.10;99.90;;;;;;5061367;28;20024;-71
2022/11/03 07:17:04;;;;;;;8.45;1.40;;;10.20;99.90;;;;;;5079136;28;20420;-72
2022/11/03 07:19:40;;;;;;;7.55;1.30;;;10.20;99.90;;;;;;5078968;28;20111;-71
2022/11/03 07:22:23;;;;;;;8.52;1.45;;;10.20;99.90;;;;;;5061251;28;20025;-72
2022/11/03 07:24:57;;;;;;;5.53;1.35;;;10.20;99.90;;;;;;5079492;28;20028;-72
2022/11/03 07:27:35;;;;;;;8.45;1.88;;;10.30;99.90;;;;;;5079106;28;20021;-72
2022/11/03 07:30:29;;;;;;;5.43;1.48;;;10.30;99.90;;;;;;5078795;28;20036;-71
2022/11/03 07:33:20;;;;;;;11.23;3.28;;;10.40;99.90;;;;;;5079113;28;20478;-72
2022/11/03 07:35:49;;;;;;;4.45;1.40;;;10.40;99.90;;;;;;5078679;28;20032;-71
2022/11/03 07:38:21;;;;;;;9.32;2.83;;;10.50;99.90;;;;;;5078865;28;20023;-72
2022/11/03 07:40:50;;;;;;;11.40;2.10;;;10.50;99.90;;;;;;5078640;28;20359;-71
2022/11/03 07:43:33;;;;;;;10.65;1.70;;;10.50;99.90;;;;;;5077348;28;20017;-72
2022/11/03 07:46:03;;;;;;;5.25;1.20;;;10.60;99.90;;;;;;5078498;28;20104;-72
2022/11/03 07:48:58;;;;;;;8.27;2.25;;;10.60;99.90;;;;;;5078654;28;20424;-72
2022/11/03 07:51:33;;;;;;;8.55;1.80;;;10.60;99.90;;;;;;5072584;28;20332;-72
2022/11/03 07:54:19;;;;;;;7.13;1.83;;;10.70;99.90;;;;;;5078427;28;20028;-74
2022/11/03 07:57:04;;;;;;;4.47;1.15;;;10.80;99.90;;;;;;5060707;28;20028;-71
2022/11/03 07:59:40;;;;;;;8.55;1.30;;;10.80;99.90;;;;;;5073673;28;20037;-72
2022/11/03 08:02:29;;;;;;;11.38;1.30;;;10.90;99.90;;;;;;5058197;28;20024;-70
2022/11/03 08:05:00;;;;;;;9.77;1.48;;;11.00;99.90;;;;;;5058136;28;20025;-70
2022/11/03 08:07:28;;;;;;;8.65;2.30;;;11.10;99.90;;;;;;5058316;28;20122;-68
2022/11/03 08:09:56;;;;;;;7.03;1.27;;;11.10;99.90;;;;;;5058095;28;20329;-70
2022/11/03 08:12:23;;;;;;;6.88;1.00;;;11.20;99.90;;;;;;5073962;28;20182;-70
2022/11/03 08:14:50;;;;;;;10.05;1.38;;;11.20;99.90;;;;;;5057849;28;20029;-70
2022/11/03 08:17:18;;;;;;;9.75;1.33;;;11.30;99.90;;;;;;5073640;28;20021;-69
2022/11/03 08:19:46;;;;;;;8.35;1.20;;;11.30;99.90;;;;;;5057910;28;20144;-70
2022/11/03 08:22:13;;;;;;;5.15;0.95;;;11.30;99.90;;;;;;5057802;28;20021;-69
2022/11/03 08:24:41;;;;;;;11.48;1.48;;;11.30;99.90;;;;;;5057798;28;20018;-69
2022/11/03 08:27:08;;;;;;;9.77;2.08;;;11.40;99.90;;;;;;5058290;28;20432;-69
2022/11/03 08:29:35;;;;;;;7.07;1.35;;;11.50;99.90;;;;;;5056598;28;20032;-69
2022/11/03 08:32:02;;;;;;;8.52;1.45;;;11.50;99.90;;;;;;5073205;28;20098;-69
2022/11/03 08:34:30;;;;;;;6.18;1.75;;;11.60;99.90;;;;;;5057844;28;20017;-69
2022/11/03 08:36:57;;;;;;;4.53;1.30;;;11.60;99.90;;;;;;5057650;28;20048;-69
2022/11/03 08:39:24;;;;;;;8.38;1.50;;;11.70;99.90;;;;;;5057466;28;20024;-69
2022/11/03 08:41:52;;;;;;;16.42;1.80;;;11.70;99.90;;;;;;5057430;28;20017;-69
2022/11/03 08:44:19;;;;;;;14.43;1.60;;;11.70;99.90;;;;;;5057939;28;20033;-69
2022/11/03 08:46:46;;;;;;;7.93;1.50;;;11.80;99.90;;;;;;5057751;28;20032;-69
2022/11/03 08:49:14;;;;;;;10.13;1.50;;;11.80;99.90;;;;;;5057862;28;20067;-69
2022/11/03 08:51:41;;;;;;;7.40;1.67;;;11.90;99.90;;;;;;5057248;28;20025;-69
2022/11/03 08:54:08;;;;;;;9.82;1.63;;;11.90;99.90;;;;;;5056610;28;20021;-69
2022/11/03 08:56:36;;;;;;;12.70;2.35;;;12.00;99.90;;;;;;5057056;28;20061;-69
2022/11/03 08:59:03;;;;;;;7.75;1.67;;;12.00;99.90;;;;;;5072073;28;20072;-69
2022/11/03 09:01:30;;;;;;;7.95;1.95;;;12.10;99.90;;;;;;5076891;28;20024;-69
2022/11/03 09:03:58;;;;;;;6.30;1.25;;;12.10;99.90;;;;;;5059387;28;20021;-69
2022/11/03 09:06:26;;;;;;;9.68;1.77;;;12.20;99.90;;;;;;5077598;28;20021;-69
2022/11/03 09:08:53;;;;;;;10.18;1.50;;;12.30;99.90;;;;;;5077676;28;20309;-69
2022/11/03 09:11:21;;;;;;;6.35;1.25;;;12.40;99.90;;;;;;5076914;28;20027;-69
2022/11/03 09:13:48;;;;;;;9.07;1.45;;;12.50;99.90;;;;;;5059165;28;20032;-69
2022/11/03 09:16:17;;;;;;;5.85;1.25;;;12.60;99.90;;;;;;5077265;28;20024;-69
2022/11/03 09:18:44;;;;;;;6.00;1.42;;;12.70;99.90;;;;;;5076975;28;20021;-69
2022/11/03 09:21:13;;;;;;;11.52;2.08;;;12.70;99.90;;;;;;5077356;28;20013;-69
2022/11/03 09:23:41;;;;;;;8.35;1.65;;;12.80;99.90;;;;;;5077020;28;20095;-69
2022/11/03 09:26:08;;;;;;;9.82;1.63;;;12.80;99.90;;;;;;5076786;28;20166;-69
2022/11/03 09:28:35;;;;;;;4.97;1.08;;;12.90;99.90;;;;;;5059696;28;20020;-69
2022/11/03 09:31:03;;;;;;;13.65;2.05;;;12.90;99.90;;;;;;5059275;28;20027;-69
2022/11/03 09:33:31;;;;;;;5.80;1.30;;;12.90;99.90;;;;;;5076657;28;20020;-69
2022/11/03 09:35:58;;;;;;;7.70;1.23;;;13.00;99.90;;;;;;5058936;28;20032;-69
2022/11/03 09:38:26;;;;;;;8.80;2.28;;;13.00;99.90;;;;;;5076731;28;20027;-70
2022/11/03 09:40:54;;;;;;;7.70;1.75;;;13.00;99.90;;;;;;5077099;28;20016;-69
2022/11/03 09:43:21;;;;;;;9.10;1.75;;;13.00;99.90;;;;;;5076543;28;20089;-69
2022/11/03 09:45:48;;;;;;;9.88;1.83;;;13.00;99.90;;;;;;5076992;28;20028;-69
2022/11/03 09:48:16;;;;;;;11.07;1.85;;;13.00;99.90;;;;;;5077233;28;20401;-73
2022/11/03 09:50:45;;;;;;;9.20;2.15;;;13.00;99.90;;;;;;5077041;28;20035;-71
2022/11/03 09:53:12;;;;;;;7.03;1.30;;;13.00;99.90;;;;;;5058655;28;20031;-71
2022/11/03 09:55:39;;;;;;;6.22;1.50;;;13.00;99.90;;;;;;5076356;28;20102;-71
2022/11/03 09:58:15;;;;;;;13.60;1.75;;;13.00;99.90;;;;;;5076643;28;20055;-71
2022/11/03 10:00:42;;;;;;;;;;;13.10;99.90;;;;;;5076752;28;20115;-71
2022/11/03 10:03:19;;;;;;;7.38;1.85;;;13.10;99.90;;;;;;5076662;28;20362;-71
2022/11/03 10:05:47;;;;;;;7.65;1.50;;;13.10;99.90;;;;;;5078454;28;20025;-71
2022/11/03 10:08:24;;;;;;;8.07;1.50;;;13.10;99.90;;;;;;5063679;28;20401;-72
2022/11/03 10:10:52;;;;;;;10.10;1.63;;;13.20;99.90;;;;;;5080892;28;20024;-71
2022/11/03 10:13:30;;;;;;;7.43;1.63;;;13.20;99.90;;;;;;5081119;28;20029;-72
2022/11/03 10:16:04;;;;;;;6.57;1.52;;;13.30;99.90;;;;;;5080969;28;20111;-72
2022/11/03 10:18:33;;;;;;;4.22;1.20;;;13.40;99.90;;;;;;5062603;28;20020;-71
2022/11/03 10:21:18;;;;;;;8.98;1.75;;;13.40;99.90;;;;;;5080480;28;20103;-69
2022/11/03 10:23:45;;;;;;;8.50;1.85;;;13.50;99.90;;;;;;5080156;28;20471;-68
2022/11/03 10:26:18;;;;;;;8.05;1.38;;;13.60;99.90;;;;;;5080008;28;20041;-69
2022/11/03 10:29:08;;;;;;;6.65;1.20;;;13.60;99.90;;;;;;5080194;28;20024;-69
2022/11/03 10:31:37;;;;;;;8.60;2.00;;;13.70;99.90;;;;;;5079687;28;20032;-68
2022/11/03 10:34:23;;;;;;;10.70;2.05;;;13.70;99.90;;;;;;5080038;28;20028;-69
2022/11/03 10:37:10;;;;;;;6.23;1.10;;;13.70;99.90;;;;;;5080360;28;20028;-69
2022/11/03 10:39:37;;;;;;;9.85;1.90;;;13.80;99.90;;;;;;5080750;28;20317;-69
2022/11/03 10:42:05;;;;;;;8.25;1.30;;;13.80;99.90;;;;;;5079882;28;20412;-69
2022/11/03 10:44:32;;;;;;;6.50;1.63;;;13.90;99.90;;;;;;5080233;28;20419;-70
2022/11/03 10:47:04;;;;;;;4.43;1.10;;;13.90;99.90;;;;;;5079546;28;20035;-70
2022/11/03 10:49:35;;;;;;;6.63;1.48;;;13.90;99.90;;;;;;5079588;28;20031;-69
2022/11/03 10:52:25;;;;;;;5.85;1.40;;;13.90;99.90;;;;;;5079713;28;20024;-70
2022/11/03 10:54:56;;;;;;;7.20;1.70;;;13.90;99.90;;;;;;5079499;28;20029;-70
2022/11/03 10:57:25;;;;;;;11.32;1.90;;;13.90;99.90;;;;;;5079490;28;20317;-70
2022/11/03 10:59:54;;;;;;;5.13;1.52;;;14.00;99.90;;;;;;5079351;28;20020;-70
2022/11/03 11:02:27;;;;;;;8.25;1.65;;;14.00;99.90;;;;;;5079720;28;20421;-70
2022/11/03 11:05:00;;;;;;;7.93;2.10;;;13.90;99.90;;;;;;5079238;28;20348;-70
2022/11/03 11:07:50;;;;;;;6.00;1.83;;;13.90;99.90;;;;;;5079574;28;20028;-71
2022/11/03 11:10:23;;;;;;;8.02;1.60;;;13.90;99.90;;;;;;5079218;28;20024;-70
2022/11/03 11:13:23;;;;;;;5.10;1.40;;;14.00;99.90;;;;;;5079903;28;20044;-70
2022/11/03 11:15:58;;;;;;;7.20;1.65;;;14.00;99.90;;;;;;5079300;28;20028;-70
2022/11/03 11:18:32;;;;;;;7.97;2.22;;;14.00;99.90;;;;;;5079056;28;20028;-71
2022/11/03 11:21:16;;;;;;;7.70;1.52;;;14.00;99.90;;;;;;5079534;28;20020;-70
2022/11/03 11:23:45;;;;;;;6.50;1.40;;;14.00;99.90;;;;;;5079727;28;20017;-70
2022/11/03 11:26:31;;;;;;;10.85;1.85;;;14.10;99.90;;;;;;5061185;28;20056;-69
2022/11/03 11:29:12;;;;;;;8.77;1.50;;;14.10;99.90;;;;;;5078939;28;20024;-70
2022/11/03 11:31:45;;;;;;;5.90;1.38;;;14.10;99.90;;;;;;5079527;28;20082;-69
2022/11/03 11:34:17;;;;;;;9.00;1.83;;;14.00;99.90;;;;;;5079072;28;20078;-69
2022/11/03 11:36:49;;;;;;;5.65;2.45;;;14.00;99.90;;;;;;5079247;28;20016;-69
2022/11/03 11:39:30;;;;;;;7.30;1.38;;;14.00;99.90;;;;;;5078987;28;20033;-69
2022/11/03 11:42:19;;;;;;;7.72;1.80;;;13.90;99.90;;;;;;5079372;28;20074;-69
2022/11/03 11:44:56;;;;;;;4.03;1.27;;;13.90;99.90;;;;;;5078417;28;20027;-70
2022/11/03 11:47:25;;;;;;;8.20;1.75;;;14.00;99.90;;;;;;5078564;28;20096;-70
2022/11/03 11:50:10;;;;;;;7.18;2.10;;;14.00;99.90;;;;;;5078383;28;20093;-69
2022/11/03 11:52:38;;;;;;;10.35;1.38;;;14.00;99.90;;;;;;5078327;28;20451;-69
2022/11/03 11:55:05;;;;;;;6.72;1.45;;;14.00;99.90;;;;;;5060688;28;20028;-69
2022/11/03 11:57:35;;;;;;;8.38;1.73;;;14.00;99.90;;;;;;5060297;28;20056;-70
2022/11/03 12:00:03;;;;;;;10.85;2.50;;;14.00;99.90;;;;;;5078219;28;20024;-70
2022/11/03 12:02:30;;;;;;;7.53;1.45;;;14.00;99.90;;;;;;5060792;28;20017;-69
2022/11/03 12:05:03;;;;;;;6.07;1.58;;;14.00;99.90;;;;;;5078541;28;20023;-71
2022/11/03 12:07:36;;;;;;;5.88;1.60;;;14.00;99.90;;;;;;5078232;28;20112;-71
2022/11/03 12:10:30;;;;;;;4.18;2.25;;;13.90;99.90;;;;;;5077979;28;20032;-70
2022/11/03 12:13:01;;;;;;;6.05;1.33;;;14.00;99.90;;;;;;5046786;28;20301;-70
2022/11/03 12:15:58;;;;;;;7.43;1.42;;;13.90;99.90;;;;;;5078064;28;20048;-71
2022/11/03 12:18:40;;;;;;;8.23;1.42;;;13.90;99.90;;;;;;5065433;28;20108;-71
2022/11/03 12:21:10;;;;;;;9.32;1.67;;;13.90;99.90;;;;;;5078428;28;20031;-71
2022/11/03 12:23:40;;;;;;;8.73;1.92;;;13.90;99.90;;;;;;5078639;28;20317;-70
2022/11/03 12:26:18;;;;;;;6.72;1.90;;;14.00;99.90;;;;;;5060028;28;20089;-71
2022/11/03 12:28:45;;;;;;;5.53;1.85;;;13.90;99.90;;;;;;5059187;28;20035;-71
2022/11/03 12:31:14;;;;;;;5.75;2.03;;;13.90;99.90;;;;;;5077595;28;20512;-70
2022/11/03 12:33:42;;;;;;;6.22;1.42;;;13.90;99.90;;;;;;5077632;28;20024;-72
2022/11/03 12:36:09;;;;;;;4.82;1.30;;;13.90;99.90;;;;;;5077946;28;20324;-72
2022/11/03 12:38:37;;;;;;;6.82;1.40;;;13.80;99.90;;;;;;5077717;28;20100;-72
2022/11/03 12:41:21;;;;;;;6.90;1.55;;;13.70;99.90;;;;;;5078030;28;20032;-72
2022/11/03 12:43:49;;;;;;;6.47;1.80;;;13.70;99.90;;;;;;5077460;28;20028;-75
2022/11/03 12:46:18;;;;;;;6.90;1.92;;;13.70;99.90;;;;;;5077386;28;20082;-75
2022/11/03 12:48:46;;;;;;;6.07;1.90;;;13.60;99.90;;;;;;5077484;28;20021;-74
2022/11/03 12:51:16;;;;;;;7.00;2.22;;;13.60;99.90;;;;;;5077796;28;20035;-74
2022/11/03 12:53:44;;;;;;;5.93;2.30;;;13.60;99.90;;;;;;5077755;28;20077;-71
2022/11/03 12:56:13;;;;;;;7.40;1.77;;;13.60;99.90;;;;;;5077341;28;20025;-71
2022/11/03 12:58:40;;;;;;;7.93;1.88;;;13.60;99.90;;;;;;5077013;28;20049;-70
2022/11/03 13:01:08;;;;;;;7.60;2.25;;;13.60;99.90;;;;;;5077121;28;20023;-73
2022/11/03 13:03:36;;;;;;;6.03;2.13;;;13.60;99.90;;;;;;5077066;28;20439;-70
2022/11/03 13:06:08;;;;;;;8.15;1.50;;;13.60;99.90;;;;;;5076821;28;20043;-71
2022/11/03 13:08:38;;;;;;;7.53;1.40;;;13.60;99.90;;;;;;5076832;28;20021;-70
2022/11/03 13:12:29;;;;;;;5.72;1.60;;;13.50;99.90;;;;;;5076859;28;20302;-70
2022/11/03 13:13:53;;;;;;;8.65;2.22;;;13.50;99.90;;;;;;5076674;28;20032;-70
2022/11/03 13:16:20;;;;;;;8.77;2.30;;;13.50;99.90;;;;;;5076637;28;20027;-70
2022/11/03 13:18:48;;;;;;;9.27;2.08;;;13.40;99.90;;;;;;5077584;28;20021;-70
2022/11/03 13:21:16;;;;;;;7.80;3.03;;;13.40;99.90;;;;;;5077353;28;20047;-70
2022/11/03 13:23:45;;;;;;;9.13;3.40;;;13.40;99.90;;;;;;5076687;28;20374;-70
2022/11/03 13:26:12;;;;;;;8.35;2.10;;;13.30;99.90;;;;;;5076694;28;20024;-70
2022/11/03 13:28:39;;;;;;;6.50;1.83;;;13.30;99.90;;;;;;5077345;28;20086;-70
2022/11/03 13:31:07;;;;;;;8.30;3.40;;;13.30;99.90;;;;;;5058875;28;20034;-70
2022/11/03 13:33:35;;;;;;;5.45;1.67;;;13.30;99.90;;;;;;5076649;28;20028;-70
2022/11/03 13:36:03;;;;;;;9.50;2.65;;;13.40;99.90;;;;;;5076497;28;20020;-70
2022/11/03 13:38:30;;;;;;;6.80;2.33;;;13.60;99.90;;;;;;5076997;28;20025;-71
2022/11/03 13:40:58;;;;;;;6.93;1.83;;;13.70;99.90;;;;;;5076830;28;20016;-70